createdAt,value
2022-12-23T00:01:27.359Z,99.10
2022-12-23T00:03:59.644Z,99.30
2022-12-23T00:06:28.451Z,99.70
2022-12-23T00:08:58.861Z,99.60
2022-12-23T00:11:29.606Z,99.40
2022-12-23T00:14:20.998Z,99.10
2022-12-23T00:16:51.826Z,99.10
2022-12-23T00:19:20.596Z,99.00
2022-12-23T00:21:49.662Z,99.10
2022-12-23T00:24:18.177Z,99.10
2022-12-23T00:26:46.751Z,99.20
2022-12-23T00:29:15.150Z,99.10
2022-12-23T00:31:43.626Z,99.10
2022-12-23T00:34:14.142Z,99.10
2022-12-23T00:36:42.713Z,99.10
2022-12-23T00:39:31.729Z,99.20
2022-12-23T00:42:17.680Z,99.50
2022-12-23T00:44:46.100Z,99.30
2022-12-23T00:47:36.199Z,99.30
2022-12-23T00:50:06.018Z,99.30
2022-12-23T00:52:34.465Z,99.40
2022-12-23T00:55:02.857Z,99.50
2022-12-23T00:57:31.283Z,99.50
2022-12-23T00:59:59.643Z,99.50
2022-12-23T01:02:45.554Z,99.50
2022-12-23T01:05:32.712Z,99.50
2022-12-23T01:08:01.178Z,99.40
2022-12-23T01:10:29.697Z,99.40
2022-12-23T01:12:58.174Z,99.40
2022-12-23T01:15:26.588Z,99.40
2022-12-23T01:17:55.062Z,99.40
2022-12-23T01:20:25.060Z,99.50
2022-12-23T01:22:53.481Z,99.50
2022-12-23T01:25:21.961Z,99.50
2022-12-23T01:27:50.369Z,99.50
2022-12-23T01:30:18.692Z,99.50
2022-12-23T01:32:46.874Z,99.50
2022-12-23T01:35:15.036Z,99.90
2022-12-23T01:37:44.733Z,99.90
2022-12-23T01:40:13.137Z,99.60
2022-12-23T01:42:47.461Z,99.50
2022-12-23T01:45:19.589Z,99.60
2022-12-23T01:47:51.261Z,99.70
2022-12-23T01:50:24.784Z,99.70
2022-12-23T01:53:06.898Z,99.80
2022-12-23T01:55:43.082Z,99.80
2022-12-23T01:58:13.835Z,99.90
2022-12-23T02:01:00.105Z,99.90
2022-12-23T02:03:43.964Z,99.90
2022-12-23T02:06:33.864Z,99.90
2022-12-23T02:09:18.519Z,99.90
2022-12-23T02:12:03.287Z,99.90
2022-12-23T02:14:58.559Z,99.90
2022-12-23T02:17:31.075Z,99.90
2022-12-23T02:20:52.386Z,99.90
2022-12-23T02:23:51.869Z,99.90
2022-12-23T02:26:47.253Z,99.90
2022-12-23T02:29:33.296Z,99.90
2022-12-23T02:32:07.463Z,99.90
2022-12-23T02:34:40.346Z,99.90
2022-12-23T02:37:13.959Z,99.90
2022-12-23T02:39:47.075Z,99.90
2022-12-23T02:42:17.635Z,99.90
2022-12-23T02:44:49.495Z,99.90
2022-12-23T02:47:21.876Z,99.90
2022-12-23T02:49:52.538Z,99.90
2022-12-23T02:52:22.759Z,99.90
2022-12-23T02:54:53.914Z,99.90
2022-12-23T02:57:26.049Z,99.90
2022-12-23T02:59:54.460Z,99.90
2022-12-23T03:02:24.517Z,99.90
2022-12-23T03:04:53.084Z,99.90
2022-12-23T03:07:27.822Z,99.90
2022-12-23T03:10:05.079Z,99.90
2022-12-23T03:12:42.142Z,99.90
2022-12-23T03:15:18.895Z,99.90
2022-12-23T03:18:00.214Z,99.90
2022-12-23T03:20:32.816Z,99.90
2022-12-23T03:23:05.103Z,99.90
2022-12-23T03:25:35.341Z,99.90
2022-12-23T03:28:09.281Z,99.90
2022-12-23T03:30:38.261Z,99.90
2022-12-23T03:33:14.741Z,99.90
2022-12-23T03:35:49.612Z,99.90
2022-12-23T03:38:18.895Z,99.90
2022-12-23T03:40:50.567Z,99.90
2022-12-23T03:43:22.227Z,99.90
2022-12-23T03:45:53.876Z,99.90
2022-12-23T03:48:26.329Z,99.90
2022-12-23T03:50:58.116Z,99.90
2022-12-23T03:53:29.148Z,99.90
2022-12-23T03:56:01.258Z,99.90
2022-12-23T03:58:38.642Z,99.90
2022-12-23T04:01:14.045Z,99.90
2022-12-23T04:03:56.238Z,99.90
2022-12-23T04:06:28.371Z,99.90
2022-12-23T04:08:58.083Z,99.90
2022-12-23T04:11:26.844Z,99.90
2022-12-23T04:13:55.415Z,99.90
2022-12-23T04:16:24.258Z,99.90
2022-12-23T04:18:54.268Z,99.90
2022-12-23T04:21:22.752Z,99.90
2022-12-23T04:23:51.221Z,99.90
2022-12-23T04:26:19.697Z,99.90
2022-12-23T04:28:48.127Z,99.90
2022-12-23T04:31:16.623Z,99.90
2022-12-23T04:33:45.019Z,99.90
2022-12-23T04:36:14.914Z,99.90
2022-12-23T04:38:43.347Z,99.90
2022-12-23T04:41:11.797Z,99.90
2022-12-23T04:43:40.420Z,99.90
2022-12-23T04:46:08.936Z,99.90
2022-12-23T04:48:37.499Z,99.90
2022-12-23T04:51:06.345Z,99.90
2022-12-23T04:53:37.585Z,99.90
2022-12-23T04:56:06.357Z,99.90
2022-12-23T04:58:34.881Z,99.90
2022-12-23T05:01:04.570Z,99.90
2022-12-23T05:03:33.279Z,99.90
2022-12-23T05:06:02.290Z,99.90
2022-12-23T05:08:31.070Z,99.90
2022-12-23T05:11:00.881Z,99.90
2022-12-23T05:13:29.452Z,99.90
2022-12-23T05:15:57.944Z,99.90
2022-12-23T05:18:26.505Z,99.90
2022-12-23T05:20:55.505Z,99.90
2022-12-23T05:23:23.908Z,99.90
2022-12-23T05:25:53.845Z,99.90
2022-12-23T05:28:24.411Z,99.90
2022-12-23T05:31:00.190Z,99.90
2022-12-23T05:33:29.664Z,99.90
2022-12-23T05:35:58.916Z,99.90
2022-12-23T05:38:27.324Z,99.90
2022-12-23T05:40:55.891Z,99.90
2022-12-23T05:43:25.971Z,99.90
2022-12-23T05:45:54.409Z,99.90
2022-12-23T05:48:23.250Z,99.90
2022-12-23T05:50:52.542Z,99.90
2022-12-23T05:53:21.982Z,99.90
2022-12-23T05:55:50.452Z,99.90
2022-12-23T05:58:19.068Z,99.90
2022-12-23T06:00:48.931Z,99.90
2022-12-23T06:03:17.442Z,99.90
2022-12-23T06:05:46.102Z,99.90
2022-12-23T06:08:14.475Z,99.90
2022-12-23T06:10:42.877Z,99.90
2022-12-23T06:13:11.293Z,99.90
2022-12-23T06:15:39.840Z,99.90
2022-12-23T06:18:09.621Z,99.90
2022-12-23T06:20:38.097Z,99.90
2022-12-23T06:23:06.540Z,99.90
2022-12-23T06:25:34.965Z,99.90
2022-12-23T06:28:03.350Z,99.90
2022-12-23T06:30:31.749Z,99.90
2022-12-23T06:33:00.175Z,99.90
2022-12-23T06:35:30.086Z,99.90
2022-12-23T06:37:58.548Z,99.90
2022-12-23T06:40:29.033Z,99.90
2022-12-23T06:42:57.443Z,99.90
2022-12-23T06:45:25.889Z,99.90
2022-12-23T06:47:54.253Z,99.90
2022-12-23T06:50:22.686Z,99.90
2022-12-23T06:52:52.495Z,99.90
2022-12-23T06:55:20.922Z,99.90
2022-12-23T06:57:49.354Z,99.90
2022-12-23T07:00:20.206Z,99.90
2022-12-23T07:02:49.111Z,99.90
2022-12-23T07:05:17.937Z,99.90
2022-12-23T07:07:46.349Z,99.90
2022-12-23T07:10:16.271Z,99.90
2022-12-23T07:12:50.371Z,99.90
2022-12-23T07:15:19.581Z,99.90
2022-12-23T07:17:47.966Z,99.90
2022-12-23T07:20:17.018Z,99.90
2022-12-23T07:22:45.473Z,99.90
2022-12-23T07:25:15.431Z,99.90
2022-12-23T07:27:44.232Z,99.90
2022-12-23T07:30:13.346Z,99.90
2022-12-23T07:32:41.804Z,99.90
2022-12-23T07:35:11.065Z,99.90
2022-12-23T07:37:39.476Z,99.90
2022-12-23T07:40:10.006Z,99.90
2022-12-23T07:42:45.812Z,99.90
2022-12-23T07:45:15.221Z,99.90
2022-12-23T07:47:43.945Z,99.90
2022-12-23T07:50:13.084Z,99.90
2022-12-23T07:52:41.542Z,99.90
2022-12-23T07:55:10.722Z,99.90
2022-12-23T07:57:40.833Z,99.90
2022-12-23T08:00:10.678Z,99.90
2022-12-23T08:02:39.491Z,99.90
2022-12-23T08:05:09.723Z,99.90
2022-12-23T08:07:38.469Z,99.90
2022-12-23T08:10:08.770Z,99.90
2022-12-23T08:12:37.195Z,99.90
2022-12-23T08:15:09.415Z,99.90
2022-12-23T08:17:37.862Z,99.90
2022-12-23T08:20:07.811Z,99.90
2022-12-23T08:22:36.226Z,99.90
2022-12-23T08:25:07.925Z,99.90
2022-12-23T08:27:36.148Z,99.90
2022-12-23T08:30:06.709Z,99.90
2022-12-23T08:32:35.220Z,99.90
2022-12-23T08:35:03.669Z,99.90
2022-12-23T08:37:32.188Z,99.90
2022-12-23T08:40:00.599Z,99.90
2022-12-23T08:42:29.043Z,99.90
2022-12-23T08:44:57.515Z,99.90
2022-12-23T08:47:27.395Z,99.90
2022-12-23T08:49:55.824Z,99.90
2022-12-23T08:52:24.400Z,99.90
2022-12-23T08:54:52.804Z,99.90
2022-12-23T08:57:21.201Z,99.90
2022-12-23T08:59:49.643Z,99.90
2022-12-23T09:02:18.200Z,99.90
2022-12-23T09:04:48.163Z,99.90
2022-12-23T09:07:16.638Z,99.90
2022-12-23T09:09:45.082Z,99.90
2022-12-23T09:12:13.687Z,99.90
2022-12-23T09:14:42.196Z,99.90
2022-12-23T09:17:10.681Z,99.90
2022-12-23T09:19:39.079Z,99.90
2022-12-23T09:22:10.116Z,99.90
2022-12-23T09:24:38.708Z,99.90
2022-12-23T09:27:07.186Z,99.90
2022-12-23T09:29:35.628Z,99.90
2022-12-23T09:32:04.254Z,99.90
2022-12-23T09:34:32.934Z,99.90
2022-12-23T09:37:01.410Z,99.90
2022-12-23T09:39:31.251Z,99.90
2022-12-23T09:42:16.273Z,99.90
2022-12-23T09:45:06.355Z,99.90
2022-12-23T09:47:35.956Z,99.90
2022-12-23T09:50:12.746Z,99.90
2022-12-23T09:52:51.005Z,99.90
2022-12-23T09:55:23.362Z,99.90
2022-12-23T09:57:58.769Z,99.90
2022-12-23T10:00:29.657Z,99.90
2022-12-23T10:03:17.650Z,99.90
2022-12-23T10:05:59.169Z,99.90
2022-12-23T10:08:34.410Z,99.90
2022-12-23T10:11:13.297Z,99.90
2022-12-23T10:13:45.723Z,99.90
2022-12-23T10:16:17.924Z,99.90
2022-12-23T10:18:56.946Z,99.90
2022-12-23T10:21:33.435Z,99.90
2022-12-23T10:24:12.570Z,99.90
2022-12-23T10:26:52.313Z,99.90
2022-12-23T10:29:23.042Z,99.90
2022-12-23T10:32:09.092Z,99.90
2022-12-23T10:34:49.019Z,99.90
2022-12-23T10:37:26.420Z,99.90
2022-12-23T10:40:08.702Z,99.90
2022-12-23T10:42:45.197Z,99.90
2022-12-23T10:45:34.309Z,99.90
2022-12-23T10:48:20.103Z,99.90
2022-12-23T10:51:02.554Z,99.90
2022-12-23T10:53:39.107Z,99.90
2022-12-23T10:56:08.620Z,99.90
2022-12-23T10:58:43.535Z,99.90
2022-12-23T11:01:25.986Z,99.90
2022-12-23T11:04:04.396Z,99.90
2022-12-23T11:06:37.616Z,99.90
2022-12-23T11:09:11.174Z,99.90
2022-12-23T11:12:01.080Z,99.90
2022-12-23T11:14:38.211Z,99.90
2022-12-23T11:17:20.687Z,99.90
2022-12-23T11:19:50.061Z,99.90
2022-12-23T11:22:25.694Z,99.90
2022-12-23T11:24:54.111Z,99.90
2022-12-23T11:27:22.518Z,99.90
2022-12-23T11:29:56.063Z,99.90
2022-12-23T11:32:28.675Z,99.90
2022-12-23T11:34:57.835Z,99.90
2022-12-23T11:37:35.867Z,99.90
2022-12-23T11:40:07.741Z,99.90
2022-12-23T11:42:36.804Z,99.90
2022-12-23T11:45:09.605Z,99.90
2022-12-23T11:47:41.377Z,99.90
2022-12-23T11:50:35.725Z,99.90
2022-12-23T11:53:25.042Z,99.90
2022-12-23T11:56:02.329Z,99.90
2022-12-23T11:58:32.746Z,99.90
2022-12-23T12:01:16.077Z,99.90
2022-12-23T12:03:51.480Z,99.90
2022-12-23T12:06:20.914Z,99.90
2022-12-23T12:08:52.274Z,99.90
2022-12-23T12:11:26.893Z,99.90
2022-12-23T12:14:00.531Z,99.90
2022-12-23T12:16:54.999Z,99.80
2022-12-23T12:19:29.796Z,99.70
2022-12-23T12:22:04.957Z,99.60
2022-12-23T12:24:40.109Z,99.70
2022-12-23T12:27:11.456Z,99.70
2022-12-23T12:29:45.856Z,99.80
2022-12-23T12:32:23.801Z,99.50
2022-12-23T12:34:58.290Z,99.00
2022-12-23T12:37:37.574Z,99.00
2022-12-23T12:40:22.171Z,99.10
2022-12-23T12:42:57.873Z,98.90
2022-12-23T12:45:35.014Z,98.70
2022-12-23T12:48:35.142Z,98.30
2022-12-23T12:51:12.431Z,98.20
2022-12-23T12:53:52.183Z,98.20
2022-12-23T12:56:29.262Z,98.40
2022-12-23T12:58:57.931Z,98.30
2022-12-23T13:01:45.819Z,98.50
2022-12-23T13:05:04.351Z,98.20
2022-12-23T13:07:41.908Z,98.00
2022-12-23T13:10:22.206Z,97.60
2022-12-23T13:12:59.581Z,97.80
2022-12-23T13:15:34.616Z,97.80
2022-12-23T13:18:23.607Z,98.00
2022-12-23T13:21:01.061Z,97.80
2022-12-23T13:23:44.293Z,97.40
2022-12-23T13:26:27.709Z,97.20
2022-12-23T13:29:27.327Z,97.60
2022-12-23T13:32:03.775Z,97.50
2022-12-23T13:34:45.672Z,97.80
2022-12-23T13:37:22.652Z,97.70
2022-12-23T13:39:59.195Z,97.40
2022-12-23T13:42:33.756Z,97.60
2022-12-23T13:45:04.492Z,97.10
2022-12-23T13:47:44.884Z,96.20
2022-12-23T13:50:18.175Z,95.60
2022-12-23T13:53:11.486Z,95.40
2022-12-23T13:55:57.672Z,96.00
2022-12-23T13:58:28.478Z,96.20
2022-12-23T14:01:22.240Z,96.50
2022-12-23T14:03:51.764Z,96.20
2022-12-23T14:06:44.146Z,96.50
2022-12-23T14:09:17.544Z,96.50
2022-12-23T14:11:46.260Z,95.90
2022-12-23T14:14:23.036Z,96.10
2022-12-23T14:17:03.653Z,96.50
2022-12-23T14:19:58.778Z,96.40
2022-12-23T14:22:46.828Z,96.40
2022-12-23T14:25:49.291Z,96.40
2022-12-23T14:28:42.295Z,96.30
2022-12-23T14:31:32.545Z,96.60
2022-12-23T14:34:24.091Z,96.60
2022-12-23T14:37:35.818Z,96.60
2022-12-23T14:41:19.617Z,96.80
2022-12-23T14:43:59.688Z,96.70
2022-12-23T14:46:58.795Z,96.70
2022-12-23T14:49:44.215Z,96.90
2022-12-23T14:52:49.377Z,96.90
2022-12-23T14:55:46.760Z,96.70
2022-12-23T14:59:01.744Z,97.00
2022-12-23T15:01:42.020Z,97.20
2022-12-23T15:04:19.981Z,97.30
2022-12-23T15:06:52.052Z,97.30
2022-12-23T15:09:26.805Z,97.30
2022-12-23T15:11:57.044Z,97.30
2022-12-23T15:14:34.937Z,97.10
2022-12-23T15:17:19.343Z,97.00
2022-12-23T15:19:48.802Z,97.00
2022-12-23T15:22:25.261Z,97.20
2022-12-23T15:24:58.698Z,97.40
2022-12-23T15:27:29.264Z,97.50
2022-12-23T15:29:58.822Z,97.50
2022-12-23T15:32:30.072Z,97.50
2022-12-23T15:35:05.913Z,97.50
2022-12-23T15:37:35.130Z,97.60
2022-12-23T15:40:12.026Z,97.50
2022-12-23T15:42:49.360Z,97.40
2022-12-23T15:45:33.967Z,97.60
2022-12-23T15:48:06.173Z,97.60
2022-12-23T15:50:41.995Z,97.60
2022-12-23T15:53:11.827Z,97.70
2022-12-23T15:55:41.919Z,98.00
2022-12-23T15:58:20.377Z,97.50
2022-12-23T16:00:55.497Z,97.60
2022-12-23T16:03:35.165Z,97.50
2022-12-23T16:06:17.285Z,97.80
2022-12-23T16:08:46.984Z,97.90
2022-12-23T16:11:18.415Z,97.90
2022-12-23T16:14:03.112Z,97.90
2022-12-23T16:16:38.363Z,97.90
2022-12-23T16:19:38.567Z,97.90
2022-12-23T16:22:36.247Z,97.90
2022-12-23T16:25:13.491Z,97.80
2022-12-23T16:27:44.930Z,97.80
2022-12-23T16:30:20.135Z,98.00
2022-12-23T16:32:52.643Z,98.10
2022-12-23T16:35:37.783Z,98.10
2022-12-23T16:38:16.844Z,98.10
2022-12-23T16:40:47.683Z,98.20
2022-12-23T16:43:17.621Z,98.20
2022-12-23T16:45:48.323Z,98.10
2022-12-23T16:48:21.620Z,98.10
2022-12-23T16:50:53.351Z,98.20
2022-12-23T16:53:21.568Z,98.30
2022-12-23T16:55:55.244Z,98.30
2022-12-23T16:58:27.295Z,98.50
2022-12-23T17:00:55.924Z,98.70
2022-12-23T17:03:24.408Z,98.70
2022-12-23T17:05:54.301Z,98.70
2022-12-23T17:08:22.786Z,98.60
2022-12-23T17:10:51.570Z,98.50
2022-12-23T17:13:20.713Z,98.40
2022-12-23T17:15:49.208Z,98.40
2022-12-23T17:18:19.313Z,98.50
2022-12-23T17:20:50.254Z,98.40
2022-12-23T17:23:28.415Z,98.50
2022-12-23T17:25:57.281Z,98.50
2022-12-23T17:28:33.159Z,98.50
2022-12-23T17:31:02.387Z,98.60
2022-12-23T17:33:33.385Z,98.70
2022-12-23T17:36:02.338Z,98.80
2022-12-23T17:38:32.626Z,98.90
2022-12-23T17:41:01.338Z,98.90
2022-12-23T17:43:29.735Z,98.90
2022-12-23T17:45:58.253Z,98.90
2022-12-23T17:48:31.643Z,99.10
2022-12-23T17:51:00.376Z,98.90
2022-12-23T17:53:28.844Z,99.00
2022-12-23T17:55:58.682Z,99.00
2022-12-23T17:58:27.123Z,99.00
2022-12-23T18:00:55.591Z,98.90
2022-12-23T18:03:24.865Z,98.90
2022-12-23T18:05:59.396Z,99.00
2022-12-23T18:08:30.083Z,99.00
2022-12-23T18:11:00.567Z,99.00
2022-12-23T18:13:28.793Z,99.00
2022-12-23T18:15:57.486Z,99.00
2022-12-23T18:18:37.799Z,98.90
2022-12-23T18:21:14.766Z,98.90
2022-12-23T18:23:42.999Z,98.80
2022-12-23T18:26:15.129Z,98.90
2022-12-23T18:28:43.500Z,98.90
2022-12-23T18:31:15.961Z,99.00
2022-12-23T18:33:44.370Z,99.00
2022-12-23T18:36:21.044Z,98.90
2022-12-23T18:38:49.287Z,98.90
2022-12-23T18:41:19.278Z,98.80
2022-12-23T18:43:47.796Z,98.70
2022-12-23T18:46:16.103Z,98.70
2022-12-23T18:48:44.614Z,98.70
2022-12-23T18:51:14.840Z,98.60
2022-12-23T18:53:44.535Z,98.70
2022-12-23T18:56:14.330Z,98.60
2022-12-23T18:58:44.328Z,98.70
2022-12-23T19:01:13.752Z,98.60
2022-12-23T19:03:42.138Z,98.40
2022-12-23T19:06:13.315Z,98.50
2022-12-23T19:08:42.544Z,98.60
2022-12-23T19:11:11.999Z,98.50
2022-12-23T19:13:40.285Z,98.50
2022-12-23T19:16:13.308Z,98.40
2022-12-23T19:18:41.624Z,98.30
2022-12-23T19:21:10.305Z,98.20
2022-12-23T19:23:40.652Z,98.20
2022-12-23T19:26:10.317Z,98.40
2022-12-23T19:28:39.078Z,98.40
2022-12-23T19:31:09.879Z,98.50
2022-12-23T19:33:38.626Z,98.50
2022-12-23T19:36:11.353Z,98.40
2022-12-23T19:38:39.658Z,98.40
2022-12-23T19:41:08.318Z,98.40
2022-12-23T19:43:37.143Z,98.40
2022-12-23T19:46:08.828Z,98.50
2022-12-23T19:48:38.936Z,98.50
2022-12-23T19:51:08.956Z,98.50
2022-12-23T19:53:37.583Z,98.50
2022-12-23T19:56:08.124Z,98.60
2022-12-23T19:58:37.628Z,98.50
2022-12-23T20:01:07.307Z,98.60
2022-12-23T20:03:35.726Z,98.70
2022-12-23T20:06:06.473Z,98.80
2022-12-23T20:08:35.132Z,98.90
2022-12-23T20:11:05.263Z,98.80
2022-12-23T20:13:33.624Z,98.80
2022-12-23T20:16:02.339Z,98.80
2022-12-23T20:18:30.818Z,98.80
2022-12-23T20:20:59.628Z,98.90
2022-12-23T20:23:29.695Z,98.90
2022-12-23T20:25:58.021Z,99.00
2022-12-23T20:28:26.246Z,99.00
2022-12-23T20:31:00.655Z,99.00
2022-12-23T20:33:29.004Z,99.00
2022-12-23T20:35:57.306Z,99.00
2022-12-23T20:38:25.628Z,99.10
2022-12-23T20:40:55.219Z,99.10
2022-12-23T20:43:23.492Z,98.90
2022-12-23T20:45:52.478Z,99.00
2022-12-23T20:48:21.782Z,98.90
2022-12-23T20:50:50.088Z,99.00
2022-12-23T20:53:18.350Z,98.90
2022-12-23T20:55:46.517Z,98.80
2022-12-23T20:58:33.923Z,98.70
2022-12-23T21:01:09.772Z,98.80
2022-12-23T21:03:38.202Z,98.80
2022-12-23T21:06:07.220Z,98.70
2022-12-23T21:08:36.022Z,98.60
2022-12-23T21:11:05.124Z,98.70
2022-12-23T21:13:37.005Z,98.70
2022-12-23T21:16:07.020Z,99.00
2022-12-23T21:18:35.587Z,98.80
2022-12-23T21:21:05.867Z,98.70
2022-12-23T21:23:37.733Z,98.70
2022-12-23T21:26:11.345Z,98.70
2022-12-23T21:28:42.086Z,98.60
2022-12-23T21:31:10.891Z,98.60
2022-12-23T21:33:40.102Z,98.60
2022-12-23T21:36:09.364Z,98.60
2022-12-23T21:38:38.927Z,98.40
2022-12-23T21:41:09.602Z,98.40
2022-12-23T21:43:38.123Z,98.40
2022-12-23T21:46:09.703Z,98.30
2022-12-23T21:48:38.285Z,98.40
2022-12-23T21:51:07.996Z,98.50
2022-12-23T21:53:36.971Z,98.60
2022-12-23T21:56:07.682Z,98.60
2022-12-23T21:58:36.518Z,98.60
2022-12-23T22:01:10.033Z,98.70
2022-12-23T22:03:38.849Z,98.80
2022-12-23T22:06:10.407Z,98.80
2022-12-23T22:08:39.657Z,98.90
2022-12-23T22:11:09.465Z,98.90
2022-12-23T22:13:38.081Z,98.90
2022-12-23T22:16:10.240Z,98.90
2022-12-23T22:18:38.772Z,98.80
2022-12-23T22:21:07.690Z,98.70
2022-12-23T22:23:35.993Z,98.60
2022-12-23T22:26:04.211Z,98.70
2022-12-23T22:28:33.358Z,98.70
2022-12-23T22:31:05.016Z,98.80
2022-12-23T22:33:35.032Z,98.80
2022-12-23T22:36:03.281Z,98.70
2022-12-23T22:38:31.507Z,98.80
2022-12-23T22:40:59.823Z,99.00
2022-12-23T22:43:28.015Z,99.00
2022-12-23T22:45:57.462Z,99.00
2022-12-23T22:48:26.231Z,99.00
2022-12-23T22:51:02.777Z,99.00
2022-12-23T22:53:31.190Z,98.90
2022-12-23T22:55:59.670Z,98.80
2022-12-23T22:58:28.746Z,98.90
2022-12-23T23:00:57.352Z,98.90
2022-12-23T23:03:26.616Z,98.90
2022-12-23T23:06:01.145Z,98.80
2022-12-23T23:08:31.087Z,98.80
2022-12-23T23:11:01.388Z,98.80
2022-12-23T23:13:32.364Z,98.70
2022-12-23T23:16:01.555Z,98.70
2022-12-23T23:18:31.057Z,98.70
2022-12-23T23:21:00.691Z,98.60
2022-12-23T23:23:28.944Z,98.60
2022-12-23T23:25:57.174Z,98.50
2022-12-23T23:28:25.461Z,98.60
2022-12-23T23:31:10.047Z,98.60
2022-12-23T23:33:41.944Z,98.70
2022-12-23T23:36:12.050Z,98.50
2022-12-23T23:38:40.245Z,98.60
2022-12-23T23:41:08.483Z,98.50
2022-12-23T23:43:36.724Z,98.60
2022-12-23T23:46:05.176Z,98.70
2022-12-23T23:48:33.382Z,98.70
2022-12-23T23:51:06.156Z,98.60
2022-12-23T23:53:35.720Z,98.60
2022-12-23T23:56:06.299Z,98.70
2022-12-23T23:58:35.225Z,98.60
